French Island, Wisconsin
Current Conditions -  °F | °C
As of 11:53 AM on Friday 24 Oct 2014 (Local Time) from KLSE Reporting Station
Broken Clouds Broken Clouds  
Wind Chill: 59°   Ceiling: 5000
Heat Index: 59°   Visibility: 10mi
Dew Point: 53°   Wind: 9mph
Humidity: 81%   Direction: 180°S
Pressure: 29.96"   Gusts: NA
Location:  43.8°N, 91.145°W
Report Text: KLSE 241653Z 18008KT 10SM FEW010 BKN050 15/12 A2996 RMK AO2 SLP144 T01500117
Loading
Personal Weather Stations






























Interactive Weather Map
Tropical Storm Tracking
New forecast layout! Learn more

10-Day Weather Forecast

Advertisements
Track Severe Weather on mobile